Emigrant Gap, CA

2:12 PM PDT on October 20, 2014 (GMT -0700)
Blue Canyon-Nyack | Change Station
CLOSE
Current Station
Airport
Location: Blue Canyon,
Elevation: 5282 ft
Nearby Weather Stations

Elev 5282 ft 39.27 °N, 120.71 °W | Updated 20 minutes ago

Mostly Cloudy
Mostly Cloudy
55 °F
Feels Like 55 °F
N
16
Wind Variable Wind from South
Gusts 24 mph

Today
High -- | Low -- °F
--% Chance of Precip.
Yesterday
High -- | Low -- °F
Precip. -- in
7:17 AM 6:16 PM
Waning Crescent, 9% visible
Pressure 29.88 in
Visibility 10.0 miles
Clouds Few 2600 ft
Few 3200 ft
Dew Point 40 °F
Humidity 57%
Rainfall 0.00 in
Snow Depth 1 in
UV 5 out of 12
Pollen 4.00 out of 12
Ozone Good
PM2.5 Good
Flu Activity Sporadic
METAR KBLU 202052Z AUTO 19014G21KT 10SM FEW026 FEW032 13/04 A3004 RMK AO2 SLP119 T01280044 58005

More Conditions Fewer Conditions

Pressure 29.88 in
Visibility 10.0 miles
Clouds Few 2600 ft
Few 3200 ft
Dew Point 40 °F
Humidity 57%
Rainfall 0.00 in
Snow Depth 1 in
UV 5 out of 12
Pollen 4.00 out of 12
Ozone Good
PM2.5 Good
Flu Activity Sporadic
METAR KBLU 202052Z AUTO 19014G21KT 10SM FEW026 FEW032 13/04 A3004 RMK AO2 SLP119 T01280044 58005

More Conditions Fewer Conditions

10-Day Weather Forecast

Almanac

Astronomy

Oct. 20, 2014 Rise Set
Actual Time 7:17 AM PDT 6:16 PM PDT
Civil Twilight 6:50 AM PDT 6:43 PM PDT
Nautical Twilight 6:19 AM PDT 7:15 PM PDT
Astronomical Twilight 5:48 AM PDT 7:46 PM PDT
Moon 4:12 AM PDT 4:41 PM PDT
Length of Visible Light 11h 53m
Length of Day
10h 58m
Waning Crescent, 9% of the Moon is Illuminated
Today
Waning Crescent
Oct 23
New
Oct 30
First Quarter
Nov 6
Full
Nov 14
Last Quarter

Today's Extremes

State Highs State Lows

Community

WunderPhotos

Upload Photos

1,763,510 photos uploaded!

WunderBlogs® & News

By Dr. Jeff Masters
Director of Meteorology, Weather Underground
By Kari Strenfel
Meteorologist, Weather Underground
By Christopher C. Burt
Weather Historian, Weather Underground
October 20, 2014
October 20, 2014
October 20, 2014

Nearby

Air Quality

  Air Quality AQ Index Pollutant
Yesterday Moderate
OZONE
Yesterday Good
PM2.5
Current Good
OZONE
Current Good
PM2.5
Monday Good
OZONE
Tuesday Good
OZONE
Wednesday Good
OZONE
Thursday Good
OZONE
Friday Good
OZONE
Saturday Good
OZONE

Snow Depth

Station Depth Elevation
CSS Lab 1 in 6900 ft
Independence Lake 0 in 8450 ft
Ward Creek #3 0 in 6750 ft
Rubicon #2 0 in 7500 ft
Echo Peak 0 in 7800 ft

Earthquake Activity

City Distance Mag. Time & Date
Smith Valley, Nevada 78 miles 2.9 10:59 AM PDT
2014-10-18
East Foothills, California 142 miles 2.6 8:16 AM PDT
2014-10-18
Minimum magnitude displayed is 2.5.

Coastal Water Temperatures

Place Temperature
No Stations Reporting

Nearby Weather Stations